»·PEaware :: N165YP KYKM-KOLM

N165YP :: KYKM-KOLM

FLIGHT INFORMATION

Flight Status: Arrived
Operator: Privately registered:
United States
More flights under this callsign
Pilot: Allen F. (27411)
Aircraft: CESSNA 172 SKYHAWK
(C172)
More flights by this aircraft type
Origin: KYKM Yakima Air Term/Mcallister
United States
Destination: KOLM Olympia
United States
More flights between these airports :: More routes between these airports
Route: +NACHES4 YKM V204 OLM
File this flight plan on PilotEdge
Remarks: +CW / I'd like to fly the arc from mcken vor rwy 35 kolm. Thank you!
Altitude:
(Current/Filed)
10,000ft
Speed:
(Current/Filed)
110kts
Departed: 27-Mar-20 03:54 PM
Arrived: 27-Mar-20 05:13 PM
Distance/Time
Traveled:
100nm/1:18
Distance/Time
To Go:
Arrived

Flight Plot

Page will automatically refresh every two minutes.


Map Options




Map Legend


Flown Route
Filed Route
Departure Airport
Arrival Airport
Navaid (VOR, NDB)
Fix

Horizontal Profiles

Position Reports

Time Latitude Longitude Heading Altitude Ground
Speed
27-Mar-20 15:24 46.559819 -120.534004 269 1103ft 0kts
27-Mar-20 15:25 46.559819 -120.534004 269 1103ft 0kts
27-Mar-20 15:25 46.559819 -120.534004 269 1103ft 0kts
27-Mar-20 15:26 46.559819 -120.534004 269 1103ft 0kts
27-Mar-20 15:27 46.559819 -120.534004 269 1103ft 0kts
27-Mar-20 15:28 46.559819 -120.534004 269 1103ft 0kts
27-Mar-20 15:29 46.559819 -120.534004 269 1103ft 0kts
27-Mar-20 15:30 46.559819 -120.534004 269 1103ft 0kts
27-Mar-20 15:31 46.559819 -120.534004 269 1103ft 0kts
27-Mar-20 15:32 46.559819 -120.534004 269 1103ft 0kts
27-Mar-20 15:33 46.559819 -120.534004 269 1103ft 0kts
27-Mar-20 15:34 46.559819 -120.534004 269 1103ft 0kts
27-Mar-20 15:36 46.559819 -120.534004 269 1103ft 0kts
27-Mar-20 15:37 46.559819 -120.534004 269 1103ft 0kts
27-Mar-20 15:38 46.559819 -120.534004 269 1103ft 0kts
27-Mar-20 15:39 46.559819 -120.534004 269 1103ft 0kts
27-Mar-20 15:40 46.559819 -120.534004 269 1103ft 0kts
27-Mar-20 15:41 46.559819 -120.534004 269 1103ft 0kts
27-Mar-20 15:42 46.559819 -120.534004 269 1103ft 0kts
27-Mar-20 15:43 46.559819 -120.534004 269 1103ft 0kts
27-Mar-20 15:44 46.559819 -120.534004 269 1103ft 0kts
27-Mar-20 15:45 46.559819 -120.534004 269 1103ft 0kts
27-Mar-20 15:46 46.559819 -120.534004 269 1103ft 0kts
27-Mar-20 15:47 46.559819 -120.534004 269 1103ft 0kts
27-Mar-20 15:48 46.559819 -120.534004 269 1103ft 0kts
27-Mar-20 15:49 46.559819 -120.534004 269 1103ft 0kts
27-Mar-20 15:50 46.560214 -120.534304 358 1103ft 12kts
27-Mar-20 15:51 46.565111 -120.534264 358 1103ft 0kts
27-Mar-20 15:52 46.565181 -120.534267 357 1103ft 6kts
27-Mar-20 15:53 46.570689 -120.552163 294 1505ft 73kts
27-Mar-20 15:54 46.584475 -120.573940 338 2428ft 77kts
27-Mar-20 15:55 46.604659 -120.582561 338 3348ft 72kts
27-Mar-20 15:56 46.624607 -120.591815 340 4192ft 70kts
27-Mar-20 15:57 46.641803 -120.604242 321 4928ft 72kts
27-Mar-20 15:58 46.645088 -120.586842 112 5618ft 72kts
27-Mar-20 15:59 46.633513 -120.560185 128 6302ft 72kts
27-Mar-20 16:00 46.621991 -120.534704 119 6916ft 78kts
27-Mar-20 16:01 46.611490 -120.506800 119 7578ft 78kts
27-Mar-20 16:02 46.600610 -120.480666 126 8236ft 79kts
27-Mar-20 16:03 46.589549 -120.455314 126 8889ft 75kts
27-Mar-20 16:04 46.574063 -120.444192 237 9470ft 79kts
27-Mar-20 16:05 46.574577 -120.475618 288 10012ft 84kts
27-Mar-20 16:06 46.576611 -120.512259 275 10266ft 110kts
27-Mar-20 16:07 46.579693 -120.559726 274 9969ft 118kts
27-Mar-20 16:08 46.581585 -120.604203 272 9993ft 106kts
27-Mar-20 16:09 46.582976 -120.646785 272 9994ft 105kts
27-Mar-20 16:10 46.584194 -120.689357 271 9994ft 105kts
27-Mar-20 16:11 46.585001 -120.731782 271 9994ft 105kts
27-Mar-20 16:12 46.585857 -120.774235 271 9994ft 105kts
27-Mar-20 16:13 46.586563 -120.816745 270 9994ft 105kts
27-Mar-20 16:14 46.587002 -120.859306 270 9994ft 105kts
27-Mar-20 16:15 46.587486 -120.901691 270 9994ft 105kts
27-Mar-20 16:16 46.588020 -120.944241 270 9994ft 105kts
27-Mar-20 16:17 46.588599 -120.986699 271 9994ft 105kts
27-Mar-20 16:18 46.589174 -121.028970 271 9994ft 105kts
27-Mar-20 16:19 46.589850 -121.071669 271 9994ft 105kts
27-Mar-20 16:20 46.590567 -121.113981 271 9994ft 105kts
27-Mar-20 16:21 46.591337 -121.156633 271 9994ft 105kts
27-Mar-20 16:22 46.592151 -121.199084 271 9994ft 105kts
27-Mar-20 16:23 46.593014 -121.241674 271 9994ft 105kts
27-Mar-20 16:24 46.593921 -121.284124 271 9994ft 105kts
27-Mar-20 16:25 46.594880 -121.326792 272 9994ft 105kts
27-Mar-20 16:26 46.595825 -121.369250 270 9994ft 105kts
27-Mar-20 16:27 46.595867 -121.411748 270 9994ft 105kts
27-Mar-20 16:28 46.595937 -121.455612 270 9996ft 116kts
27-Mar-20 16:29 46.596083 -121.504502 270 9991ft 117kts
27-Mar-20 16:30 46.596263 -121.549155 270 9993ft 106kts
27-Mar-20 16:31 46.596477 -121.591729 270 9994ft 104kts
27-Mar-20 16:32 46.596733 -121.633751 270 9994ft 103kts
27-Mar-20 16:33 46.597066 -121.680516 270 9995ft 124kts
27-Mar-20 16:34 46.597498 -121.731558 270 9994ft 127kts
27-Mar-20 16:35 46.597991 -121.782912 270 9994ft 127kts
27-Mar-20 16:36 46.598542 -121.834294 270 9994ft 127kts
27-Mar-20 16:37 46.609142 -121.880446 317 9989ft 126kts
27-Mar-20 16:38 46.636250 -121.913274 319 9992ft 127kts
27-Mar-20 16:39 46.664613 -121.943836 318 9993ft 127kts
27-Mar-20 16:40 46.688151 -121.982197 304 9994ft 127kts
27-Mar-20 16:41 46.708426 -122.023082 306 9990ft 115kts
27-Mar-20 16:42 46.730830 -122.062607 316 8992ft 137kts
27-Mar-20 16:43 46.760216 -122.101629 324 7316ft 138kts
27-Mar-20 16:44 46.785822 -122.135315 308 7036ft 105kts
27-Mar-20 16:45 46.799644 -122.173779 306 7209ft 107kts
27-Mar-20 16:46 46.820474 -122.209805 318 6350ft 116kts
27-Mar-20 16:47 46.843570 -122.243600 307 5222ft 123kts
27-Mar-20 16:48 46.864235 -122.277206 312 5088ft 108kts
27-Mar-20 16:49 46.883975 -122.312627 308 5209ft 115kts
27-Mar-20 16:50 46.908128 -122.348075 309 4970ft 122kts
27-Mar-20 16:51 46.930155 -122.391958 308 3747ft 128kts
27-Mar-20 16:52 46.950059 -122.432755 305 2895ft 116kts
27-Mar-20 16:53 46.967326 -122.468666 307 3001ft 99kts
27-Mar-20 16:54 46.983219 -122.504968 299 3083ft 113kts
27-Mar-20 16:55 47.001608 -122.543167 305 3074ft 116kts
27-Mar-20 16:56 47.018822 -122.582430 308 3030ft 122kts
27-Mar-20 16:57 47.038125 -122.620745 305 2827ft 130kts
27-Mar-20 16:58 47.061496 -122.658199 314 2364ft 112kts
27-Mar-20 16:59 47.083673 -122.688927 316 2498ft 108kts
27-Mar-20 17:00 47.107036 -122.718019 313 2527ft 113kts
27-Mar-20 17:01 47.126316 -122.754206 322 2407ft 121kts
27-Mar-20 17:02 47.150020 -122.787210 318 2424ft 112kts
27-Mar-20 17:03 47.170066 -122.822011 288 2463ft 109kts
27-Mar-20 17:04 47.152904 -122.855600 203 2576ft 108kts
27-Mar-20 17:06 47.123494 -122.867907 190 2518ft 112kts
27-Mar-20 17:07 47.096280 -122.872797 181 2549ft 92kts
27-Mar-20 17:08 47.069594 -122.877950 188 2395ft 109kts
27-Mar-20 17:09 47.039731 -122.886532 175 1606ft 107kts
27-Mar-20 17:10 47.012288 -122.892716 189 1109ft 99kts
27-Mar-20 17:11 46.991583 -122.898138 190 581ft 69kts
27-Mar-20 17:12 46.973924 -122.903094 192 215ft 46kts
27-Mar-20 17:13 46.967236 -122.903719 92 212ft 0kts
27-Mar-20 17:14 46.967236 -122.903719 92 212ft 0kts
27-Mar-20 17:15 46.967217 -122.902499 92 212ft 20kts
27-Mar-20 17:16 46.971434 -122.898087 47 212ft 23kts
27-Mar-20 17:17 46.974775 -122.897948 325 212ft 7kts
27-Mar-20 17:18 46.974867 -122.898049 321 212ft 0kts
27-Mar-20 17:19 46.974867 -122.898049 321 212ft 0kts
27-Mar-20 17:20 46.974867 -122.898049 321 212ft 0kts
27-Mar-20 17:21 46.974867 -122.898049 321 212ft 0kts
27-Mar-20 17:21 46.974867 -122.898049 321 212ft 0kts

Navigation Log

Ident Type
Flight plan parsing failed, navigation log unavailable